Time;durP1;ratioP1;P1;durP2;ratioP2;P2;SDS_P1;SDS_P2;PMS_P1;PMS_P2;Temp;Humidity;BMP_temperature;BMP_pressure;BME280_temperature;BME280_humidity;BME280_pressure;Samples;Min_cycle;Max_cycle;Signal;HPM_P1;HPM_P2
2022/04/14 00:00:20;;;;;;;;;;;;;;;;;;5014057;28;19960;-62
2022/04/14 00:02:46;;;;;;;;;;;;;;;;;;5007774;28;20357;-63
2022/04/14 00:05:11;;;;;;;;;;;;;;;;;;5003957;28;19974;-60
2022/04/14 00:07:36;;;;;;;;;;;;;;;;;;5004827;28;19919;-59
2022/04/14 00:10:02;;;;;;;;;;;;;;;;;;5010623;28;20397;-60
2022/04/14 00:12:27;;;;;;;;;;;;;;;;;;5005068;28;19914;-60
2022/04/14 00:14:52;;;;;;;;;;;;;;;;;;5009552;28;19946;-59
2022/04/14 00:17:17;;;;;;;;;;;;;;;;;;5007274;28;19920;-60
2022/04/14 00:19:42;;;;;;;;;;;;;;;;;;5036591;28;19921;-59
2022/04/14 00:22:08;;;;;;;;;;;;;;;;;;5015735;28;20430;-60
2022/04/14 00:24:33;;;;;;;;;;;;;;;;;;5009809;28;19925;-60
2022/04/14 00:26:58;;;;;;;;;;;;;;;;;;5011593;28;20374;-61
2022/04/14 00:29:24;;;;;;;;;;;;;;;;;;5008487;28;19917;-60
2022/04/14 00:31:49;;;;;;;;;;;;;;;;;;5037303;28;19960;-61
2022/04/14 00:34:14;;;;;;;;;;;;;;;;;;5014207;28;19928;-61
2022/04/14 00:36:40;;;;;;;;;;;;;;;;;;5008321;28;20305;-60
2022/04/14 00:39:05;;;;;;;;;;;;;;;;;;5013832;28;19969;-59
2022/04/14 00:41:30;;;;;;;;;;;;;;;;;;5008261;28;19921;-60
2022/04/14 00:43:55;;;;;;;;;;;;;;;;;;5014996;28;21263;-59
2022/04/14 00:46:21;;;;;;;;;;;;;;;;;;5013828;28;20262;-60
2022/04/14 00:48:46;;;;;;;;;;;;;;;;;;5035433;28;19957;-61
2022/04/14 00:51:11;;;;;;;;;;;;;;;;;;5015393;28;19986;-60
2022/04/14 00:53:37;;;;;;;;;;;;;;;;;;5008178;28;19978;-59
2022/04/14 00:56:03;;;;;;;;;;;;;;;;;;5005737;28;19917;-59
2022/04/14 00:58:28;;;;;;;;;;;;;;;;;;5012063;28;20277;-59
2022/04/14 01:00:53;;;;;;;;;;;;;;;;;;5010164;28;20028;-60
2022/04/14 01:03:18;;;;;;;;;;;;;;;;;;5013770;28;19956;-60
2022/04/14 01:05:45;;;;;;;;;;;;;;;;;;5008891;28;20319;-60
2022/04/14 01:08:10;;;;;;;;;;;;;;;;;;5006263;28;19915;-60
2022/04/14 01:10:35;;;;;;;;;;;;;;;;;;5004634;28;19914;-60
2022/04/14 01:13:01;;;;;;;;;;;;;;;;;;5005537;28;19920;-64
2022/04/14 01:15:26;;;;;;;;;;;;;;;;;;5009345;28;19920;-60
2022/04/14 01:17:52;;;;;;;;;;;;;;;;;;5005582;28;19994;-61
2022/04/14 01:20:18;;;;;;;;;;;;;;;;;;5005895;28;19925;-61
2022/04/14 01:22:43;;;;;;;;;;;;;;;;;;5010704;28;19913;-60
2022/04/14 01:25:08;;;;;;;;;;;;;;;;;;5013333;28;19963;-61
2022/04/14 01:27:33;;;;;;;;;;;;;;;;;;5019833;28;19919;-61
2022/04/14 01:29:59;;;;;;;;;;;;;;;;;;5008244;28;19968;-60
2022/04/14 01:32:24;;;;;;;;;;;;;;;;;;5009114;28;20451;-60
2022/04/14 01:34:49;;;;;;;;;;;;;;;;;;5013163;28;20276;-60
2022/04/14 01:37:14;;;;;;;;;;;;;;;;;;5009491;28;19956;-60
2022/04/14 01:39:40;;;;;;;;;;;;;;;;;;5017953;28;19918;-61
2022/04/14 01:42:05;;;;;;;;;;;;;;;;;;5011582;28;20301;-61
2022/04/14 01:44:30;;;;;;;;;;;;;;;;;;5012848;28;20324;-60
2022/04/14 01:46:55;;;;;;;;;;;;;;;;;;5019204;28;19917;-60
2022/04/14 01:49:21;;;;;;;;;;;;;;;;;;5013202;28;20337;-60
2022/04/14 01:51:48;;;;;;;;;;;;;;;;;;5019171;28;20281;-61
2022/04/14 01:54:13;;;;;;;;;;;;;;;;;;5010408;28;20003;-60
2022/04/14 01:56:38;;;;;;;;;;;;;;;;;;5009114;28;20544;-60
2022/04/14 01:59:03;;;;;;;;;;;;;;;;;;5020068;28;20428;-60
2022/04/14 02:01:29;;;;;;;;;;;;;;;;;;5010939;28;19914;-59
2022/04/14 02:03:54;;;;;;;;;;;;;;;;;;5013561;28;19917;-59
2022/04/14 02:06:20;;;;;;;;;;;;;;;;;;5011220;28;19928;-60
2022/04/14 02:08:45;;;;;;;;;;;;;;;;;;5039979;28;19917;-60
2022/04/14 02:11:10;;;;;;;;;;;;;;;;;;5014238;28;19916;-59
2022/04/14 02:13:36;;;;;;;;;;;;;;;;;;5009731;28;19917;-61
2022/04/14 02:16:01;;;;;;;;;;;;;;;;;;5017301;28;19920;-60
2022/04/14 02:18:26;;;;;;;;;;;;;;;;;;5023154;28;20291;-61
2022/04/14 02:20:52;;;;;;;;;;;;;;;;;;5008756;28;20485;-59
2022/04/14 02:23:18;;;;;;;;;;;;;;;;;;5014319;28;19918;-60
2022/04/14 02:25:43;;;;;;;;;;;;;;;;;;5008046;28;19913;-59
2022/04/14 02:28:09;;;;;;;;;;;;;;;;;;5017349;28;20312;-59
2022/04/14 02:30:34;;;;;;;;;;;;;;;;;;5008980;28;19913;-59
2022/04/14 02:32:59;;;;;;;;;;;;;;;;;;5008392;28;20359;-60
2022/04/14 02:35:25;;;;;;;;;;;;;;;;;;5013184;28;20329;-64
2022/04/14 02:37:50;;;;;;;;;;;;;;;;;;5005732;28;20043;-59
2022/04/14 02:40:15;;;;;;;;;;;;;;;;;;5015231;28;19956;-61
2022/04/14 02:42:41;;;;;;;;;;;;;;;;;;5017422;28;19960;-60
2022/04/14 02:45:06;;;;;;;;;;;;;;;;;;5008345;28;20346;-59
2022/04/14 02:47:31;;;;;;;;;;;;;;;;;;5012816;28;19963;-60
2022/04/14 02:49:57;;;;;;;;;;;;;;;;;;5010883;28;19996;-59
2022/04/14 02:52:22;;;;;;;;;;;;;;;;;;5014454;28;19949;-59
2022/04/14 02:54:47;;;;;;;;;;;;;;;;;;5009099;28;19914;-59
2022/04/14 02:57:12;;;;;;;;;;;;;;;;;;5013390;28;20254;-59
2022/04/14 02:59:38;;;;;;;;;;;;;;;;;;5006459;28;19968;-60
2022/04/14 03:02:03;;;;;;;;;;;;;;;;;;5003558;28;20366;-60
2022/04/14 03:04:30;;;;;;;;;;;;;;;;;;5012785;28;20016;-60
2022/04/14 03:06:55;;;;;;;;;;;;;;;;;;5006148;28;19914;-62
2022/04/14 03:09:20;;;;;;;;;;;;;;;;;;5036853;28;19988;-62
2022/04/14 03:11:45;;;;;;;;;;;;;;;;;;5014285;28;19910;-59
2022/04/14 03:14:10;;;;;;;;;;;;;;;;;;5009544;28;19919;-59
2022/04/14 03:16:36;;;;;;;;;;;;;;;;;;5014546;28;20246;-61
2022/04/14 03:19:01;;;;;;;;;;;;;;;;;;5010021;28;19924;-59
2022/04/14 03:21:26;;;;;;;;;;;;;;;;;;5010918;28;19925;-59
2022/04/14 03:23:51;;;;;;;;;;;;;;;;;;5016170;28;20254;-61
2022/04/14 03:26:16;;;;;;;;;;;;;;;;;;5011058;28;20238;-59
2022/04/14 03:28:42;;;;;;;;;;;;;;;;;;5015852;28;19920;-60
2022/04/14 03:31:07;;;;;;;;;;;;;;;;;;5025932;28;19920;-58
2022/04/14 03:33:32;;;;;;;;;;;;;;;;;;5011672;28;20343;-59
2022/04/14 03:35:58;;;;;;;;;;;;;;;;;;5019251;28;19967;-59
2022/04/14 03:38:24;;;;;;;;;;;;;;;;;;5009789;28;20441;-60
2022/04/14 03:40:50;;;;;;;;;;;;;;;;;;5014711;28;20397;-60
2022/04/14 03:43:15;;;;;;;;;;;;;;;;;;5011412;28;19917;-61
2022/04/14 03:45:40;;;;;;;;;;;;;;;;;;5008922;28;19913;-59
2022/04/14 03:48:05;;;;;;;;;;;;;;;;;;5012929;28;19988;-61
2022/04/14 03:50:30;;;;;;;;;;;;;;;;;;5007737;28;19913;-60
2022/04/14 03:52:56;;;;;;;;;;;;;;;;;;5014996;28;19959;-59
2022/04/14 03:55:21;;;;;;;;;;;;;;;;;;5008781;28;19916;-59
2022/04/14 03:57:46;;;;;;;;;;;;;;;;;;5008858;28;19997;-59
2022/04/14 04:00:12;;;;;;;;;;;;;;;;;;5014359;28;19910;-60
2022/04/14 04:02:37;;;;;;;;;;;;;;;;;;5008733;28;20422;-60
2022/04/14 04:05:03;;;;;;;;;;;;;;;;;;5019044;28;19996;-60
2022/04/14 04:07:28;;;;;;;;;;;;;;;;;;5007614;28;19917;-60
2022/04/14 04:09:53;;;;;;;;;;;;;;;;;;5009064;28;19995;-60
2022/04/14 04:12:21;;;;;;;;;;;;;;;;;;5013313;28;19933;-60
2022/04/14 04:14:48;;;;;;;;;;;;;;;;;;5004011;28;20317;-60
2022/04/14 04:17:13;;;;;;;;;;;;;;;;;;5014068;28;19913;-59
2022/04/14 04:19:38;;;;;;;;;;;;;;;;;;5005874;28;20242;-60
2022/04/14 04:22:03;;;;;;;;;;;;;;;;;;5008912;28;19912;-59
2022/04/14 04:24:29;;;;;;;;;;;;;;;;;;5013942;28;20272;-60
2022/04/14 04:26:54;;;;;;;;;;;;;;;;;;5006521;28;20281;-59
2022/04/14 04:29:19;;;;;;;;;;;;;;;;;;5015556;28;19909;-60
2022/04/14 04:31:45;;;;;;;;;;;;;;;;;;5018080;28;19948;-60
2022/04/14 04:34:10;;;;;;;;;;;;;;;;;;5015725;28;19992;-59
2022/04/14 04:36:35;;;;;;;;;;;;;;;;;;5012515;28;20190;-58
2022/04/14 04:39:01;;;;;;;;;;;;;;;;;;5038245;28;19948;-60
2022/04/14 04:41:27;;;;;;;;;;;;;;;;;;5013486;28;19921;-60
2022/04/14 04:43:52;;;;;;;;;;;;;;;;;;5015192;28;19913;-60
2022/04/14 04:46:17;;;;;;;;;;;;;;;;;;5008861;28;19949;-58
2022/04/14 04:48:42;;;;;;;;;;;;;;;;;;5012974;28;19914;-59
2022/04/14 04:51:07;;;;;;;;;;;;;;;;;;5007557;28;19924;-59
2022/04/14 04:53:33;;;;;;;;;;;;;;;;;;5014301;28;19937;-58
2022/04/14 04:55:58;;;;;;;;;;;;;;;;;;5009907;28;19943;-59
2022/04/14 04:58:23;;;;;;;;;;;;;;;;;;5010408;28;19960;-59
2022/04/14 05:00:48;;;;;;;;;;;;;;;;;;5016693;28;19920;-60
2022/04/14 05:03:14;;;;;;;;;;;;;;;;;;5011322;28;20156;-60
2022/04/14 05:05:40;;;;;;;;;;;;;;;;;;5012943;28;19917;-60
2022/04/14 05:08:07;;;;;;;;;;;;;;;;;;5013524;28;19920;-60
2022/04/14 05:10:33;;;;;;;;;;;;;;;;;;5012956;28;20377;-59
2022/04/14 05:12:58;;;;;;;;;;;;;;;;;;5020295;28;20576;-59
2022/04/14 05:15:23;;;;;;;;;;;;;;;;;;5018162;28;19963;-61
2022/04/14 05:17:48;;;;;;;;;;;;;;;;;;5048162;28;20311;-60
2022/04/14 05:20:13;;;;;;;;;;;;;;;;;;5014211;28;19933;-60
2022/04/14 05:22:39;;;;;;;;;;;;;;;;;;5010588;28;20303;-60
2022/04/14 05:25:04;;;;;;;;;;;;;;;;;;5013412;28;19910;-60
2022/04/14 05:27:29;;;;;;;;;;;;;;;;;;5011989;28;19917;-60
2022/04/14 05:29:54;;;;;;;;;;;;;;;;;;5023513;28;20255;-60
2022/04/14 05:32:20;;;;;;;;;;;;;;;;;;5012679;28;20300;-60
2022/04/14 05:34:46;;;;;;;;;;;;;;;;;;5013142;28;19913;-60
2022/04/14 05:37:11;;;;;;;;;;;;;;;;;;5019950;28;19928;-60
2022/04/14 05:39:36;;;;;;;;;;;;;;;;;;5011831;28;19921;-60
2022/04/14 05:42:02;;;;;;;;;;;;;;;;;;5018015;28;20011;-61
2022/04/14 05:44:27;;;;;;;;;;;;;;;;;;5014059;28;20008;-60
2022/04/14 05:46:53;;;;;;;;;;;;;;;;;;5043047;28;19919;-60
2022/04/14 05:49:18;;;;;;;;;;;;;;;;;;5023900;28;19913;-60
2022/04/14 05:51:43;;;;;;;;;;;;;;;;;;5009484;28;20456;-60
2022/04/14 05:54:09;;;;;;;;;;;;;;;;;;5016299;28;19964;-60
2022/04/14 05:56:34;;;;;;;;;;;;;;;;;;5012776;28;19939;-60
2022/04/14 05:59:00;;;;;;;;;;;;;;;;;;5017843;28;19921;-59
2022/04/14 06:01:25;;;;;;;;;;;;;;;;;;5018475;28;21335;-60
2022/04/14 06:03:53;;;;;;;;;;;;;;;;;;5045001;28;20384;-60
2022/04/14 06:06:36;;;;;;;;;;;;;;;;;;5006900;28;20019;-60
2022/04/14 06:09:03;;;;;;;;;;;;;;;;;;5016851;28;19960;-61
2022/04/14 06:11:29;;;;;;;;;;;;;;;;;;5009192;28;19917;-60
2022/04/14 06:13:54;;;;;;;;;;;;;;;;;;5016498;28;19917;-59
2022/04/14 06:16:19;;;;;;;;;;;;;;;;;;5009804;28;19913;-59
2022/04/14 06:18:44;;;;;;;;;;;;;;;;;;5008821;28;20319;-59
2022/04/14 06:21:09;;;;;;;;;;;;;;;;;;5014699;28;20346;-59
2022/04/14 06:23:36;;;;;;;;;;;;;;;;;;5011255;28;20269;-61
2022/04/14 06:26:01;;;;;;;;;;;;;;;;;;5010381;28;19913;-60
2022/04/14 06:28:27;;;;;;;;;;;;;;;;;;5014730;28;19920;-61
2022/04/14 06:30:52;;;;;;;;;;;;;;;;;;5011070;28;19964;-60
2022/04/14 06:33:18;;;;;;;;;;;;;;;;;;5015890;28;19950;-60
2022/04/14 06:35:43;;;;;;;;;;;;;;;;;;5016893;28;19917;-60
2022/04/14 06:38:09;;;;;;;;;;;;;;;;;;5013586;28;19917;-63
2022/04/14 06:40:35;;;;;;;;;;;;;;;;;;5010585;28;19917;-61
2022/04/14 06:43:00;;;;;;;;;;;;;;;;;;5008141;28;19919;-60
2022/04/14 06:45:25;;;;;;;;;;;;;;;;;;5014491;28;19914;-61
2022/04/14 06:47:50;;;;;;;;;;;;;;;;;;5042028;28;19945;-61
2022/04/14 06:50:16;;;;;;;;;;;;;;;;;;5014991;28;19914;-61
2022/04/14 06:52:41;;;;;;;;;;;;;;;;;;5008391;28;19920;-60
2022/04/14 06:55:06;;;;;;;;;;;;;;;;;;5006667;28;20378;-60
2022/04/14 06:57:31;;;;;;;;;;;;;;;;;;5014610;28;20024;-60
2022/04/14 06:59:57;;;;;;;;;;;;;;;;;;5006356;28;19947;-60
2022/04/14 07:02:22;;;;;;;;;;;;;;;;;;5021757;28;20423;-61
2022/04/14 07:04:48;;;;;;;;;;;;;;;;;;5007534;28;20441;-61
2022/04/14 07:07:13;;;;;;;;;;;;;;;;;;5007723;28;19920;-60
2022/04/14 07:09:38;;;;;;;;;;;;;;;;;;5015169;28;19957;-61
2022/04/14 07:12:04;;;;;;;;;;;;;;;;;;5013559;28;20028;-61
2022/04/14 07:14:30;;;;;;;;;;;;;;;;;;5016444;28;19910;-61
2022/04/14 07:16:55;;;;;;;;;;;;;;;;;;5006697;28;19996;-62
2022/04/14 07:19:20;;;;;;;;;;;;;;;;;;5009636;28;19974;-63
2022/04/14 07:21:47;;;;;;;;;;;;;;;;;;5007244;28;19920;-61
2022/04/14 07:24:12;;;;;;;;;;;;;;;;;;5008296;28;20330;-60
2022/04/14 07:26:37;;;;;;;;;;;;;;;;;;5048132;28;19924;-60
2022/04/14 07:29:03;;;;;;;;;;;;;;;;;;5007734;28;20452;-61
2022/04/14 07:31:28;;;;;;;;;;;;;;;;;;5022008;28;20195;-60
2022/04/14 07:33:53;;;;;;;;;;;;;;;;;;5017659;28;19990;-61
2022/04/14 07:36:21;;;;;;;;;;;;;;;;;;4998129;28;20778;-62
2022/04/14 07:38:47;;;;;;;;;;;;;;;;;;5028937;28;20243;-62
2022/04/14 07:41:12;;;;;;;;;;;;;;;;;;5011079;28;19967;-61
2022/04/14 07:43:37;;;;;;;;;;;;;;;;;;5011671;28;19951;-61
2022/04/14 07:46:03;;;;;;;;;;;;;;;;;;5021310;28;20012;-61
2022/04/14 07:48:29;;;;;;;;;;;;;;;;;;5007965;28;20402;-61
2022/04/14 07:50:54;;;;;;;;;;;;;;;;;;5012874;28;19985;-62
2022/04/14 07:53:19;;;;;;;;;;;;;;;;;;5009026;28;20286;-61
2022/04/14 07:55:44;;;;;;;;;;;;;;;;;;5007693;28;20269;-61
2022/04/14 07:58:10;;;;;;;;;;;;;;;;;;5014190;28;20190;-61
2022/04/14 08:00:35;;;;;;;;;;;;;;;;;;5006708;28;19920;-61
2022/04/14 08:03:01;;;;;;;;;;;;;;;;;;5015467;28;20023;-60
2022/04/14 08:05:26;;;;;;;;;;;;;;;;;;5008431;28;19921;-61
2022/04/14 08:07:51;;;;;;;;;;;;;;;;;;5006304;28;19955;-61
2022/04/14 08:10:16;;;;;;;;;;;;;;;;;;5010860;28;19913;-61
2022/04/14 08:12:42;;;;;;;;;;;;;;;;;;5005570;28;19924;-62
2022/04/14 08:15:07;;;;;;;;;;;;;;;;;;5013387;28;19916;-62
2022/04/14 08:17:33;;;;;;;;;;;;;;;;;;5009479;28;19956;-61
2022/04/14 08:19:58;;;;;;;;;;;;;;;;;;5006080;28;20354;-61
2022/04/14 08:22:23;;;;;;;;;;;;;;;;;;5043673;28;20269;-61
2022/04/14 08:24:50;;;;;;;;;;;;;;;;;;5007586;28;19914;-60
2022/04/14 08:27:15;;;;;;;;;;;;;;;;;;5011525;28;20388;-61
2022/04/14 08:29:40;;;;;;;;;;;;;;;;;;5007100;28;20380;-62
2022/04/14 08:32:09;;;;;;;;;;;;;;;;;;5004507;28;19913;-61
2022/04/14 08:34:34;;;;;;;;;;;;;;;;;;5041758;28;20288;-62
2022/04/14 08:36:59;;;;;;;;;;;;;;;;;;5006093;28;20365;-61
2022/04/14 08:39:25;;;;;;;;;;;;;;;;;;5012105;28;20004;-62
2022/04/14 08:41:50;;;;;;;;;;;;;;;;;;5007943;28;19963;-60
2022/04/14 08:44:15;;;;;;;;;;;;;;;;;;5006969;28;20004;-62
2022/04/14 08:46:41;;;;;;;;;;;;;;;;;;5011744;28;20416;-62
2022/04/14 08:49:07;;;;;;;;;;;;;;;;;;5002635;28;19913;-61
2022/04/14 08:51:35;;;;;;;;;;;;;;;;;;4997377;28;19975;-62
2022/04/14 08:54:00;;;;;;;;;;;;;;;;;;5007159;28;19914;-62
2022/04/14 08:56:26;;;;;;;;;;;;;;;;;;5007419;28;19921;-62
2022/04/14 08:58:51;;;;;;;;;;;;;;;;;;5011579;28;19917;-61
2022/04/14 09:01:16;;;;;;;;;;;;;;;;;;5009168;28;19933;-61
2022/04/14 09:03:42;;;;;;;;;;;;;;;;;;5014912;28;19913;-62
2022/04/14 09:06:07;;;;;;;;;;;;;;;;;;5005189;28;20391;-62
2022/04/14 09:08:33;;;;;;;;;;;;;;;;;;5035744;28;20250;-62
2022/04/14 09:10:59;;;;;;;;;;;;;;;;;;5040765;28;20374;-62
2022/04/14 09:13:24;;;;;;;;;;;;;;;;;;5038680;28;19975;-62
2022/04/14 09:15:49;;;;;;;;;;;;;;;;;;5012850;28;19913;-62
2022/04/14 09:18:14;;;;;;;;;;;;;;;;;;5008719;28;19968;-63
2022/04/14 09:20:41;;;;;;;;;;;;;;;;;;5022887;28;19922;-63
2022/04/14 09:23:07;;;;;;;;;;;;;;;;;;5010417;28;20398;-63
2022/04/14 09:25:32;;;;;;;;;;;;;;;;;;5005455;28;19993;-63
2022/04/14 09:27:57;;;;;;;;;;;;;;;;;;5013130;28;19917;-62
2022/04/14 09:30:22;;;;;;;;;;;;;;;;;;5004255;28;19959;-62
2022/04/14 09:32:50;;;;;;;;;;;;;;;;;;5007284;28;20405;-63
2022/04/14 09:35:15;;;;;;;;;;;;;;;;;;5010684;28;20004;-63
2022/04/14 09:37:40;;;;;;;;;;;;;;;;;;5006298;28;20279;-62
2022/04/14 09:40:08;;;;;;;;;;;;;;;;;;5011733;28;20024;-62
2022/04/14 09:42:34;;;;;;;;;;;;;;;;;;5008850;28;19920;-62
2022/04/14 09:44:59;;;;;;;;;;;;;;;;;;5008812;28;19909;-62
2022/04/14 09:47:25;;;;;;;;;;;;;;;;;;5043256;28;19918;-62
2022/04/14 09:49:50;;;;;;;;;;;;;;;;;;5010646;28;20020;-61
2022/04/14 09:52:15;;;;;;;;;;;;;;;;;;5013446;28;19940;-62
2022/04/14 09:54:41;;;;;;;;;;;;;;;;;;5011376;28;19914;-61
2022/04/14 09:57:06;;;;;;;;;;;;;;;;;;5011471;28;19929;-63
2022/04/14 09:59:32;;;;;;;;;;;;;;;;;;5046982;28;19928;-63
2022/04/14 10:01:58;;;;;;;;;;;;;;;;;;5005002;28;19974;-63
2022/04/14 10:04:23;;;;;;;;;;;;;;;;;;5012576;28;19910;-61
2022/04/14 10:06:49;;;;;;;;;;;;;;;;;;5014740;28;20005;-62
2022/04/14 10:09:14;;;;;;;;;;;;;;;;;;5008136;28;19910;-61
2022/04/14 10:11:40;;;;;;;;;;;;;;;;;;5012998;28;19925;-63
2022/04/14 10:14:05;;;;;;;;;;;;;;;;;;5010118;28;20364;-62
2022/04/14 10:16:30;;;;;;;;;;;;;;;;;;5014097;28;19960;-64
2022/04/14 10:18:56;;;;;;;;;;;;;;;;;;5042110;28;20380;-63
2022/04/14 10:21:21;;;;;;;;;;;;;;;;;;5009918;28;19921;-62
2022/04/14 10:23:46;;;;;;;;;;;;;;;;;;5015739;28;19909;-62
2022/04/14 10:26:11;;;;;;;;;;;;;;;;;;5007916;28;19917;-62
2022/04/14 10:28:36;;;;;;;;;;;;;;;;;;5011206;28;20273;-63
2022/04/14 10:31:02;;;;;;;;;;;;;;;;;;5013449;28;20281;-62
2022/04/14 10:33:27;;;;;;;;;;;;;;;;;;5007237;28;19913;-62
2022/04/14 10:35:52;;;;;;;;;;;;;;;;;;5015306;28;19920;-62
2022/04/14 10:38:17;;;;;;;;;;;;;;;;;;5010465;28;19978;-62
2022/04/14 10:40:43;;;;;;;;;;;;;;;;;;5013974;28;19935;-63
2022/04/14 10:43:09;;;;;;;;;;;;;;;;;;5014506;28;20346;-62
2022/04/14 10:45:34;;;;;;;;;;;;;;;;;;5008006;28;20007;-63
2022/04/14 10:47:59;;;;;;;;;;;;;;;;;;5014320;28;19913;-62
2022/04/14 10:50:24;;;;;;;;;;;;;;;;;;5008558;28;20155;-62
2022/04/14 10:52:49;;;;;;;;;;;;;;;;;;5009601;28;19917;-63
2022/04/14 10:55:15;;;;;;;;;;;;;;;;;;5014392;28;19921;-63
2022/04/14 10:57:40;;;;;;;;;;;;;;;;;;5008825;28;20326;-63
2022/04/14 11:00:05;;;;;;;;;;;;;;;;;;5019430;28;20373;-63
2022/04/14 11:02:30;;;;;;;;;;;;;;;;;;5009363;28;19933;-63
2022/04/14 11:04:56;;;;;;;;;;;;;;;;;;5009067;28;19913;-62
2022/04/14 11:07:21;;;;;;;;;;;;;;;;;;5015297;28;20265;-61
2022/04/14 11:09:48;;;;;;;;;;;;;;;;;;5011335;28;20627;-62
2022/04/14 11:12:13;;;;;;;;;;;;;;;;;;5016246;28;19910;-61
2022/04/14 11:14:38;;;;;;;;;;;;;;;;;;5009743;28;20369;-61
2022/04/14 11:17:04;;;;;;;;;;;;;;;;;;5009544;28;20017;-62
2022/04/14 11:19:29;;;;;;;;;;;;;;;;;;5012442;28;19921;-62
2022/04/14 11:21:54;;;;;;;;;;;;;;;;;;5008670;28;19913;-62
2022/04/14 11:24:19;;;;;;;;;;;;;;;;;;5020830;28;20669;-62
2022/04/14 11:26:45;;;;;;;;;;;;;;;;;;5010888;28;20418;-62
2022/04/14 11:29:11;;;;;;;;;;;;;;;;;;5008644;28;20000;-62
2022/04/14 11:31:36;;;;;;;;;;;;;;;;;;5015704;28;20428;-63
2022/04/14 11:34:01;;;;;;;;;;;;;;;;;;5006256;28;19909;-61
2022/04/14 11:36:28;;;;;;;;;;;;;;;;;;5011899;28;19913;-62
2022/04/14 11:38:57;;;;;;;;;;;;;;;;;;5003342;28;20004;-63
2022/04/14 11:41:22;;;;;;;;;;;;;;;;;;5040932;28;19916;-63
2022/04/14 11:43:49;;;;;;;;;;;;;;;;;;5011486;28;19925;-63
2022/04/14 11:46:14;;;;;;;;;;;;;;;;;;5006851;28;19918;-63
2022/04/14 11:48:39;;;;;;;;;;;;;;;;;;5018405;28;20000;-63
2022/04/14 11:51:04;;;;;;;;;;;;;;;;;;5009840;28;19956;-62
2022/04/14 11:53:30;;;;;;;;;;;;;;;;;;5013709;28;20389;-63
2022/04/14 11:55:55;;;;;;;;;;;;;;;;;;5014672;28;19913;-63
2022/04/14 11:58:21;;;;;;;;;;;;;;;;;;5012194;28;19925;-62
2022/04/14 12:00:46;;;;;;;;;;;;;;;;;;5020939;28;19967;-63
2022/04/14 12:03:12;;;;;;;;;;;;;;;;;;5010212;28;19999;-63
2022/04/14 12:05:38;;;;;;;;;;;;;;;;;;5010366;28;20195;-62
2022/04/14 12:08:03;;;;;;;;;;;;;;;;;;5012015;28;19917;-63
2022/04/14 12:10:28;;;;;;;;;;;;;;;;;;5020877;28;20418;-64
2022/04/14 12:12:53;;;;;;;;;;;;;;;;;;5013219;28;19996;-63
2022/04/14 12:15:18;;;;;;;;;;;;;;;;;;5012084;28;20198;-63
2022/04/14 12:17:44;;;;;;;;;;;;;;;;;;5013342;28;19909;-63
2022/04/14 12:20:09;;;;;;;;;;;;;;;;;;5015678;28;20242;-63
2022/04/14 12:22:34;;;;;;;;;;;;;;;;;;5010520;28;19924;-63
2022/04/14 12:24:59;;;;;;;;;;;;;;;;;;5012524;28;19913;-63
2022/04/14 12:27:27;;;;;;;;;;;;;;;;;;5017951;28;20195;-62
2022/04/14 12:29:52;;;;;;;;;;;;;;;;;;5016935;28;20365;-63
2022/04/14 12:32:18;;;;;;;;;;;;;;;;;;5043455;28;19917;-63
2022/04/14 12:34:44;;;;;;;;;;;;;;;;;;5013194;28;19918;-61
2022/04/14 12:37:12;;;;;;;;;;;;;;;;;;5016741;28;20379;-63
2022/04/14 12:39:38;;;;;;;;;;;;;;;;;;5013151;28;20373;-63
2022/04/14 12:42:03;;;;;;;;;;;;;;;;;;5015425;28;20393;-64
2022/04/14 12:44:28;;;;;;;;;;;;;;;;;;5046508;28;19924;-63
2022/04/14 12:46:54;;;;;;;;;;;;;;;;;;5012023;28;19921;-63
2022/04/14 12:49:20;;;;;;;;;;;;;;;;;;5039844;28;19924;-63
2022/04/14 12:51:46;;;;;;;;;;;;;;;;;;5007694;28;19916;-64
2022/04/14 12:54:11;;;;;;;;;;;;;;;;;;5013502;28;20344;-64
2022/04/14 12:56:36;;;;;;;;;;;;;;;;;;5018426;28;19935;-64
2022/04/14 12:59:01;;;;;;;;;;;;;;;;;;5012212;28;19921;-64
2022/04/14 13:01:27;;;;;;;;;;;;;;;;;;5037379;28;19967;-63
2022/04/14 13:03:52;;;;;;;;;;;;;;;;;;5011266;28;19917;-63
2022/04/14 13:06:17;;;;;;;;;;;;;;;;;;5014530;28;19989;-63
2022/04/14 13:08:42;;;;;;;;;;;;;;;;;;5012842;28;20000;-63
2022/04/14 13:11:08;;;;;;;;;;;;;;;;;;5017225;28;19917;-64
2022/04/14 13:13:33;;;;;;;;;;;;;;;;;;5018491;28;19914;-64
2022/04/14 13:15:58;;;;;;;;;;;;;;;;;;5015841;28;19926;-65
2022/04/14 13:18:23;;;;;;;;;;;;;;;;;;5041208;28;20012;-63
2022/04/14 13:20:49;;;;;;;;;;;;;;;;;;5009892;28;19949;-64
2022/04/14 13:23:18;;;;;;;;;;;;;;;;;;5018967;28;19996;-63
2022/04/14 13:25:44;;;;;;;;;;;;;;;;;;5018201;28;20000;-63
2022/04/14 13:28:09;;;;;;;;;;;;;;;;;;5015252;28;20004;-63
2022/04/14 13:30:34;;;;;;;;;;;;;;;;;;5005750;28;20048;-63
2022/04/14 13:33:00;;;;;;;;;;;;;;;;;;5018115;28;20293;-64
2022/04/14 13:35:26;;;;;;;;;;;;;;;;;;5017663;28;19913;-63
2022/04/14 13:37:51;;;;;;;;;;;;;;;;;;5018000;28;20289;-63
2022/04/14 13:40:16;;;;;;;;;;;;;;;;;;5044206;28;19936;-63
2022/04/14 13:42:41;;;;;;;;;;;;;;;;;;5050118;28;19920;-63
2022/04/14 13:45:09;;;;;;;;;;;;;;;;;;5018653;28;19949;-63
2022/04/14 13:47:34;;;;;;;;;;;;;;;;;;5018227;28;20379;-63
2022/04/14 13:50:00;;;;;;;;;;;;;;;;;;5039024;28;20647;-63
2022/04/14 13:52:25;;;;;;;;;;;;;;;;;;5047089;28;19920;-63
2022/04/14 13:54:50;;;;;;;;;;;;;;;;;;5016475;28;19909;-63
2022/04/14 13:57:15;;;;;;;;;;;;;;;;;;5016355;28;19913;-63
2022/04/14 13:59:40;;;;;;;;;;;;;;;;;;5017056;28;20058;-63
2022/04/14 14:02:06;;;;;;;;;;;;;;;;;;5016747;28;20063;-63
2022/04/14 14:04:31;;;;;;;;;;;;;;;;;;5014871;28;20011;-64
2022/04/14 14:06:57;;;;;;;;;;;;;;;;;;5013148;28;19909;-63
2022/04/14 14:09:22;;;;;;;;;;;;;;;;;;5012927;28;19940;-64
2022/04/14 14:11:47;;;;;;;;;;;;;;;;;;5018605;28;19956;-63
2022/04/14 14:14:12;;;;;;;;;;;;;;;;;;5023072;28;19913;-63
2022/04/14 14:16:38;;;;;;;;;;;;;;;;;;5024956;28;19999;-64
2022/04/14 14:19:03;;;;;;;;;;;;;;;;;;5016214;28;19925;-64
2022/04/14 14:21:28;;;;;;;;;;;;;;;;;;5017545;28;20326;-63
2022/04/14 14:23:53;;;;;;;;;;;;;;;;;;5015887;28;19914;-63
2022/04/14 14:26:19;;;;;;;;;;;;;;;;;;5010014;28;20213;-63
2022/04/14 14:28:44;;;;;;;;;;;;;;;;;;5013378;28;19910;-63
2022/04/14 14:31:11;;;;;;;;;;;;;;;;;;5015011;28;19913;-64
2022/04/14 14:33:36;;;;;;;;;;;;;;;;;;5019543;28;19959;-63
2022/04/14 14:36:02;;;;;;;;;;;;;;;;;;5014352;28;19992;-63
2022/04/14 14:38:27;;;;;;;;;;;;;;;;;;5045007;28;19987;-63
2022/04/14 14:40:52;;;;;;;;;;;;;;;;;;5016199;28;20313;-63
2022/04/14 14:43:17;;;;;;;;;;;;;;;;;;5044556;28;20351;-63
2022/04/14 14:45:47;;;;;;;;;;;;;;;;;;5017903;28;19936;-63
2022/04/14 14:48:12;;;;;;;;;;;;;;;;;;5017786;28;19913;-63
2022/04/14 14:50:37;;;;;;;;;;;;;;;;;;5015953;28;19921;-63
2022/04/14 14:53:02;;;;;;;;;;;;;;;;;;5018478;28;20185;-63
2022/04/14 14:55:28;;;;;;;;;;;;;;;;;;5049086;28;20000;-64
2022/04/14 15:00:46;;;;;;;;;;;;;;;;;;5022180;28;19936;-63
2022/04/14 15:03:11;;;;;;;;;;;;;;;;;;5021747;28;20026;-62
2022/04/14 15:05:36;;;;;;;;;;;;;;;;;;5015973;28;19949;-62
2022/04/14 15:08:02;;;;;;;;;;;;;;;;;;5031896;28;19956;-63
2022/04/14 15:10:28;;;;;;;;;;;;;;;;;;5015209;28;20279;-62
2022/04/14 15:12:53;;;;;;;;;;;;;;;;;;5012293;28;19920;-63
2022/04/14 15:15:26;;;;;;;;;;;;;;;;;;5015813;28;19913;-63
2022/04/14 15:17:51;;;;;;;;;;;;;;;;;;5012757;28;19913;-63
2022/04/14 15:20:16;;;;;;;;;;;;;;;;;;5013019;28;20325;-63
2022/04/14 15:22:42;;;;;;;;;;;;;;;;;;5015681;28;20317;-62
2022/04/14 15:25:07;;;;;;;;;;;;;;;;;;5012503;28;19949;-63
2022/04/14 15:27:32;;;;;;;;;;;;;;;;;;5042737;28;20024;-63
2022/04/14 15:29:57;;;;;;;;;;;;;;;;;;5014428;28;20307;-62
2022/04/14 15:32:22;;;;;;;;;;;;;;;;;;5016690;28;19917;-63
2022/04/14 15:34:48;;;;;;;;;;;;;;;;;;5047087;28;19919;-63
2022/04/14 15:37:13;;;;;;;;;;;;;;;;;;5010373;28;19952;-63
2022/04/14 15:39:38;;;;;;;;;;;;;;;;;;5012957;28;19968;-63
2022/04/14 15:42:04;;;;;;;;;;;;;;;;;;5015653;28;19968;-63
2022/04/14 15:44:29;;;;;;;;;;;;;;;;;;5017906;28;19921;-62
2022/04/14 15:46:54;;;;;;;;;;;;;;;;;;5020266;28;19913;-63
2022/04/14 15:49:19;;;;;;;;;;;;;;;;;;5048167;28;20317;-64
2022/04/14 15:51:45;;;;;;;;;;;;;;;;;;5014113;28;19920;-63
2022/04/14 15:54:10;;;;;;;;;;;;;;;;;;5014948;28;20035;-62
2022/04/14 15:56:35;;;;;;;;;;;;;;;;;;5018435;28;20421;-63
2022/04/14 15:59:01;;;;;;;;;;;;;;;;;;5014231;28;19916;-63
2022/04/14 16:01:26;;;;;;;;;;;;;;;;;;5015990;28;19917;-63
2022/04/14 16:03:52;;;;;;;;;;;;;;;;;;5019295;28;19921;-63
2022/04/14 16:06:17;;;;;;;;;;;;;;;;;;5019415;28;19917;-63
2022/04/14 16:08:42;;;;;;;;;;;;;;;;;;5014231;28;20406;-63
2022/04/14 16:13:52;;;;;;;;;;;;;;;;;;5003773;28;19917;-61
2022/04/14 16:16:17;;;;;;;;;;;;;;;;;;5005104;28;19963;-62
2022/04/14 16:18:43;;;;;;;;;;;;;;;;;;5020333;28;19917;-63
2022/04/14 16:21:08;;;;;;;;;;;;;;;;;;5013448;28;20016;-62
2022/04/14 16:23:34;;;;;;;;;;;;;;;;;;5011776;28;20341;-63
2022/04/14 16:25:59;;;;;;;;;;;;;;;;;;5004886;28;19914;-63
2022/04/14 16:28:24;;;;;;;;;;;;;;;;;;5003187;28;19948;-63
2022/04/14 16:30:49;;;;;;;;;;;;;;;;;;5012142;28;19913;-63
2022/04/14 16:33:15;;;;;;;;;;;;;;;;;;5007254;28;19913;-63
2022/04/14 16:35:40;;;;;;;;;;;;;;;;;;5010105;28;19917;-63
2022/04/14 16:38:05;;;;;;;;;;;;;;;;;;4998956;28;19968;-62